DLH6TU LIMC-EDDM
Flight info
| Callsign | DLH6TU |
|---|---|
| Flight time | 0h 41m |
| Altitude | 18000 |
| Route | OSKOR M985 TAGIP T876 GUNGO Y246 TISAX T102 IVKAL/N0407F240 T102 NINUR T101 BETOS BETOS1B |
| Aircraft | A321/M-SDE2E3FGIJ1LORWXYZ/HB1 |
Departure
| Time | 2026-05-06 17:39 |
|---|---|
| Airport | Milan Malpensa International Airport (LIMC) |
Arrival
| Time | 2026-05-06 18:21 |
|---|---|
| Airport | Munich Airport (EDDM) |
| Time | Latitude | Longitude | Altitude | Speed | Heading |
|---|---|---|---|---|---|
| 2026-05-06 17:01 | 45.62553 | 8.71672 | 741 ft | 0 kts | 169° |
| 2026-05-06 17:03 | 45.62555 | 8.71671 | 741 ft | 0 kts | 169° |
| 2026-05-06 17:24 | 45.62571 | 8.71667 | 739 ft | 4 kts | 170° |
| 2026-05-06 17:25 | 45.62597 | 8.71660 | 741 ft | 4 kts | 164° |
| 2026-05-06 17:25 | 45.62620 | 8.71645 | 739 ft | 4 kts | 120° |
| 2026-05-06 17:25 | 45.62623 | 8.71635 | 738 ft | 3 kts | 90° |
| 2026-05-06 17:25 | 45.62628 | 8.71672 | 740 ft | 4 kts | 76° |
| 2026-05-06 17:26 | 45.62633 | 8.71707 | 741 ft | 1 kts | 79° |
| 2026-05-06 17:26 | 45.62634 | 8.71708 | 741 ft | 0 kts | 79° |
| 2026-05-06 17:28 | 45.62634 | 8.71709 | 741 ft | 1 kts | 79° |
| 2026-05-06 17:28 | 45.62637 | 8.71737 | 741 ft | 5 kts | 79° |
| 2026-05-06 17:29 | 45.62642 | 8.71798 | 741 ft | 7 kts | 96° |
| 2026-05-06 17:29 | 45.62590 | 8.71846 | 741 ft | 12 kts | 167° |
| 2026-05-06 17:29 | 45.62491 | 8.71873 | 741 ft | 17 kts | 169° |
| 2026-05-06 17:29 | 45.62358 | 8.71908 | 740 ft | 22 kts | 169° |
| 2026-05-06 17:30 | 45.62196 | 8.71953 | 741 ft | 25 kts | 169° |
| 2026-05-06 17:30 | 45.62024 | 8.72002 | 741 ft | 26 kts | 169° |
| 2026-05-06 17:30 | 45.61847 | 8.72051 | 741 ft | 26 kts | 169° |
| 2026-05-06 17:30 | 45.61668 | 8.72101 | 741 ft | 27 kts | 169° |
| 2026-05-06 17:31 | 45.61482 | 8.72154 | 742 ft | 27 kts | 169° |
| 2026-05-06 17:31 | 45.61293 | 8.72205 | 742 ft | 28 kts | 169° |
| 2026-05-06 17:31 | 45.61100 | 8.72257 | 742 ft | 28 kts | 169° |
| 2026-05-06 17:31 | 45.60903 | 8.72312 | 742 ft | 29 kts | 169° |
| 2026-05-06 17:32 | 45.60746 | 8.72355 | 742 ft | 16 kts | 168° |
| 2026-05-06 17:32 | 45.60654 | 8.72423 | 742 ft | 16 kts | 128° |
| 2026-05-06 17:32 | 45.60632 | 8.72582 | 742 ft | 17 kts | 95° |
| 2026-05-06 17:32 | 45.60619 | 8.72762 | 742 ft | 19 kts | 96° |
| 2026-05-06 17:33 | 45.60605 | 8.72951 | 742 ft | 20 kts | 96° |
| 2026-05-06 17:33 | 45.60593 | 8.73145 | 742 ft | 16 kts | 93° |
| 2026-05-06 17:33 | 45.60648 | 8.73277 | 742 ft | 17 kts | 26° |
| 2026-05-06 17:33 | 45.60763 | 8.73344 | 741 ft | 18 kts | 22° |
| 2026-05-06 17:34 | 45.60887 | 8.73396 | 742 ft | 19 kts | 358° |
| 2026-05-06 17:34 | 45.61026 | 8.73374 | 742 ft | 20 kts | 348° |
| 2026-05-06 17:34 | 45.61167 | 8.73333 | 742 ft | 21 kts | 349° |
| 2026-05-06 17:34 | 45.61317 | 8.73292 | 742 ft | 22 kts | 349° |
| 2026-05-06 17:35 | 45.61449 | 8.73255 | 742 ft | 15 kts | 349° |
| 2026-05-06 17:35 | 45.61550 | 8.73226 | 742 ft | 13 kts | 349° |
| 2026-05-06 17:35 | 45.61604 | 8.73241 | 742 ft | 7 kts | 45° |
| 2026-05-06 17:36 | 45.61631 | 8.73408 | 741 ft | 11 kts | 91° |
| 2026-05-06 17:36 | 45.61596 | 8.73513 | 741 ft | 13 kts | 118° |
| 2026-05-06 17:36 | 45.61587 | 8.73646 | 740 ft | 15 kts | 80° |
| 2026-05-06 17:36 | 45.61659 | 8.73725 | 739 ft | 11 kts | 351° |
| 2026-05-06 17:37 | 45.61667 | 8.73722 | 738 ft | 0 kts | 347° |
| 2026-05-06 17:38 | 45.61668 | 8.73722 | 739 ft | 1 kts | 347° |
| 2026-05-06 17:38 | 45.61704 | 8.73711 | 739 ft | 25 kts | 348° |
| 2026-05-06 17:38 | 45.62152 | 8.73590 | 740 ft | 103 kts | 348° |
| 2026-05-06 17:39 | 45.63072 | 8.73333 | 740 ft | 164 kts | 348° |
| 2026-05-06 17:39 | 45.64179 | 8.73050 | 1486 ft | 159 kts | 350° |
| 2026-05-06 17:39 | 45.65345 | 8.72773 | 1971 ft | 179 kts | 352° |
| 2026-05-06 17:39 | 45.66585 | 8.72580 | 2754 ft | 178 kts | 359° |
| 2026-05-06 17:40 | 45.67829 | 8.72556 | 3403 ft | 179 kts | 0° |
| 2026-05-06 17:40 | 45.69079 | 8.72563 | 4022 ft | 182 kts | 0° |
| 2026-05-06 17:40 | 45.70418 | 8.72571 | 4338 ft | 203 kts | 360° |
| 2026-05-06 17:40 | 45.71869 | 8.72810 | 4533 ft | 225 kts | 22° |
| 2026-05-06 17:41 | 45.73038 | 8.74341 | 4831 ft | 235 kts | 61° |
| 2026-05-06 17:41 | 45.73769 | 8.76456 | 5244 ft | 239 kts | 67° |
| 2026-05-06 17:41 | 45.74324 | 8.78734 | 5735 ft | 245 kts | 83° |
| 2026-05-06 17:41 | 45.74314 | 8.81173 | 6436 ft | 250 kts | 102° |
| 2026-05-06 17:42 | 45.73795 | 8.83604 | 6947 ft | 265 kts | 110° |
| 2026-05-06 17:42 | 45.73629 | 8.86264 | 7403 ft | 283 kts | 79° |
| 2026-05-06 17:42 | 45.74468 | 8.88849 | 8091 ft | 291 kts | 58° |
| 2026-05-06 17:42 | 45.75587 | 8.91299 | 8856 ft | 295 kts | 57° |
| 2026-05-06 17:43 | 45.76742 | 8.93770 | 9621 ft | 300 kts | 57° |
| 2026-05-06 17:43 | 45.77911 | 8.96308 | 10193 ft | 312 kts | 57° |
| 2026-05-06 17:43 | 45.79113 | 8.98987 | 10369 ft | 335 kts | 58° |
| 2026-05-06 17:43 | 45.80397 | 9.01924 | 10508 ft | 358 kts | 59° |
| 2026-05-06 17:44 | 45.81740 | 9.05057 | 10679 ft | 377 kts | 59° |
| 2026-05-06 17:44 | 45.83122 | 9.08307 | 11182 ft | 385 kts | 59° |
| 2026-05-06 17:44 | 45.84522 | 9.11609 | 11732 ft | 390 kts | 60° |
| 2026-05-06 17:44 | 45.85939 | 9.14957 | 12340 ft | 395 kts | 60° |
| 2026-05-06 17:45 | 45.87374 | 9.18348 | 12959 ft | 399 kts | 60° |
| 2026-05-06 17:45 | 45.88823 | 9.21773 | 13569 ft | 403 kts | 60° |
| 2026-05-06 17:45 | 45.90285 | 9.25225 | 14127 ft | 407 kts | 60° |
| 2026-05-06 17:45 | 45.91747 | 9.28681 | 14625 ft | 411 kts | 60° |
| 2026-05-06 17:46 | 45.93259 | 9.32260 | 15164 ft | 415 kts | 60° |
| 2026-05-06 17:46 | 45.94762 | 9.35819 | 15715 ft | 419 kts | 60° |
| 2026-05-06 17:46 | 45.96278 | 9.39414 | 16264 ft | 422 kts | 60° |
| 2026-05-06 17:46 | 45.97790 | 9.43007 | 16695 ft | 426 kts | 60° |
| 2026-05-06 17:47 | 45.99332 | 9.46673 | 17256 ft | 429 kts | 60° |
| 2026-05-06 17:47 | 46.00886 | 9.50373 | 17780 ft | 433 kts | 60° |
| 2026-05-06 17:47 | 46.01921 | 9.52837 | 18126 ft | 436 kts | 60° |
| 2026-05-06 17:47 | 46.03498 | 9.56599 | 18523 ft | 440 kts | 60° |
| 2026-05-06 17:48 | 46.05082 | 9.60391 | 18942 ft | 443 kts | 61° |
| 2026-05-06 17:48 | 46.06675 | 9.64214 | 19300 ft | 447 kts | 61° |
| 2026-05-06 17:48 | 46.08288 | 9.68084 | 19714 ft | 451 kts | 60° |
| 2026-05-06 17:48 | 46.09909 | 9.71979 | 20147 ft | 454 kts | 61° |
| 2026-05-06 17:49 | 46.11521 | 9.75858 | 20603 ft | 457 kts | 61° |
| 2026-05-06 17:49 | 46.13162 | 9.79806 | 21026 ft | 462 kts | 61° |
| 2026-05-06 17:49 | 46.14825 | 9.83810 | 21459 ft | 466 kts | 61° |
| 2026-05-06 17:49 | 46.16492 | 9.87836 | 21935 ft | 468 kts | 61° |
| 2026-05-06 17:50 | 46.18170 | 9.91889 | 22363 ft | 471 kts | 61° |
| 2026-05-06 17:50 | 46.19856 | 9.95977 | 22792 ft | 475 kts | 61° |
| 2026-05-06 17:50 | 46.21548 | 10.00092 | 23204 ft | 478 kts | 61° |
| 2026-05-06 17:50 | 46.23233 | 10.04198 | 23495 ft | 484 kts | 61° |
| 2026-05-06 17:51 | 46.24969 | 10.08435 | 23685 ft | 490 kts | 61° |
| 2026-05-06 17:51 | 46.26715 | 10.12701 | 23957 ft | 494 kts | 61° |
| 2026-05-06 17:51 | 46.28475 | 10.16988 | 24301 ft | 497 kts | 61° |
| 2026-05-06 17:51 | 46.30251 | 10.21310 | 24612 ft | 501 kts | 61° |
| 2026-05-06 17:52 | 46.32038 | 10.25664 | 24912 ft | 505 kts | 62° |
| 2026-05-06 17:52 | 46.33830 | 10.30046 | 25280 ft | 507 kts | 62° |
| 2026-05-06 17:52 | 46.35628 | 10.34467 | 25578 ft | 511 kts | 62° |
| 2026-05-06 17:52 | 46.37432 | 10.38917 | 25885 ft | 514 kts | 62° |
| 2026-05-06 17:53 | 46.39249 | 10.43401 | 26179 ft | 517 kts | 62° |
| 2026-05-06 17:53 | 46.41079 | 10.47917 | 26447 ft | 519 kts | 62° |
| 2026-05-06 17:53 | 46.42909 | 10.52440 | 26622 ft | 524 kts | 62° |
| 2026-05-06 17:53 | 46.44756 | 10.57019 | 26840 ft | 527 kts | 62° |
| 2026-05-06 17:54 | 46.46590 | 10.61572 | 27083 ft | 530 kts | 62° |
| 2026-05-06 17:54 | 46.48456 | 10.66215 | 27357 ft | 531 kts | 62° |
| 2026-05-06 17:54 | 46.50314 | 10.70840 | 27766 ft | 529 kts | 62° |
| 2026-05-06 17:54 | 46.52164 | 10.75447 | 27900 ft | 525 kts | 62° |
| 2026-05-06 17:55 | 46.53992 | 10.79996 | 27927 ft | 518 kts | 62° |
| 2026-05-06 17:55 | 46.55801 | 10.84502 | 27904 ft | 516 kts | 62° |
| 2026-05-06 17:55 | 46.57933 | 10.88717 | 27908 ft | 519 kts | 48° |
| 2026-05-06 17:55 | 46.60687 | 10.92121 | 27905 ft | 519 kts | 32° |
| 2026-05-06 17:56 | 46.63862 | 10.94413 | 27901 ft | 513 kts | 15° |
| 2026-05-06 17:56 | 46.67306 | 10.95664 | 27910 ft | 509 kts | 8° |
| 2026-05-06 17:56 | 46.70775 | 10.96703 | 27895 ft | 508 kts | 8° |
| 2026-05-06 17:56 | 46.74237 | 10.97741 | 27891 ft | 508 kts | 7° |
| 2026-05-06 17:57 | 46.77720 | 10.98790 | 27897 ft | 509 kts | 7° |
| 2026-05-06 17:57 | 46.81189 | 10.99845 | 27889 ft | 508 kts | 8° |
| 2026-05-06 17:57 | 46.84665 | 11.00908 | 27896 ft | 509 kts | 8° |
| 2026-05-06 17:57 | 46.88090 | 11.01961 | 27887 ft | 509 kts | 8° |
| 2026-05-06 17:58 | 46.91565 | 11.03034 | 27893 ft | 508 kts | 8° |
| 2026-05-06 17:58 | 46.95019 | 11.04106 | 27877 ft | 507 kts | 8° |
| 2026-05-06 17:58 | 46.98468 | 11.05180 | 27850 ft | 507 kts | 8° |
| 2026-05-06 17:58 | 47.01930 | 11.06250 | 27564 ft | 506 kts | 8° |
| 2026-05-06 17:59 | 47.05338 | 11.07379 | 27307 ft | 507 kts | 10° |
| 2026-05-06 17:59 | 47.08728 | 11.08648 | 27044 ft | 497 kts | 12° |
| 2026-05-06 17:59 | 47.12040 | 11.09996 | 26767 ft | 491 kts | 13° |
| 2026-05-06 17:59 | 47.15324 | 11.11384 | 26504 ft | 489 kts | 14° |
| 2026-05-06 18:00 | 47.18588 | 11.12768 | 26238 ft | 487 kts | 14° |
| 2026-05-06 18:00 | 47.21835 | 11.14118 | 25995 ft | 484 kts | 13° |
| 2026-05-06 18:00 | 47.25067 | 11.15430 | 25739 ft | 481 kts | 13° |
| 2026-05-06 18:00 | 47.28295 | 11.16725 | 25479 ft | 478 kts | 13° |
| 2026-05-06 18:01 | 47.31494 | 11.18000 | 25234 ft | 473 kts | 13° |
| 2026-05-06 18:01 | 47.34665 | 11.19259 | 24988 ft | 470 kts | 13° |
| 2026-05-06 18:01 | 47.37808 | 11.20509 | 24749 ft | 467 kts | 13° |
| 2026-05-06 18:01 | 47.40902 | 11.21740 | 24504 ft | 464 kts | 13° |
| 2026-05-06 18:02 | 47.44020 | 11.22987 | 24274 ft | 461 kts | 13° |
| 2026-05-06 18:02 | 47.47119 | 11.24234 | 23814 ft | 460 kts | 14° |
| 2026-05-06 18:02 | 47.50229 | 11.25484 | 23000 ft | 459 kts | 14° |
| 2026-05-06 18:02 | 47.53266 | 11.26705 | 22598 ft | 447 kts | 14° |
| 2026-05-06 18:03 | 47.56242 | 11.27907 | 21989 ft | 440 kts | 14° |
| 2026-05-06 18:03 | 47.59145 | 11.29081 | 21378 ft | 435 kts | 14° |
| 2026-05-06 18:03 | 47.62055 | 11.30254 | 20781 ft | 431 kts | 14° |
| 2026-05-06 18:03 | 47.64939 | 11.31420 | 20180 ft | 426 kts | 14° |
| 2026-05-06 18:04 | 47.67796 | 11.32574 | 19587 ft | 422 kts | 14° |
| 2026-05-06 18:04 | 47.70614 | 11.33711 | 19001 ft | 418 kts | 14° |
| 2026-05-06 18:04 | 47.73381 | 11.34828 | 18412 ft | 414 kts | 15° |
| 2026-05-06 18:04 | 47.76155 | 11.35952 | 17797 ft | 410 kts | 15° |
| 2026-05-06 18:05 | 47.78911 | 11.37069 | 17138 ft | 407 kts | 14° |
| 2026-05-06 18:05 | 47.81631 | 11.38177 | 16516 ft | 403 kts | 14° |
| 2026-05-06 18:05 | 47.84293 | 11.39265 | 15893 ft | 399 kts | 14° |
| 2026-05-06 18:05 | 47.86964 | 11.40358 | 15250 ft | 396 kts | 14° |
| 2026-05-06 18:06 | 47.89613 | 11.41442 | 14625 ft | 393 kts | 14° |
| 2026-05-06 18:06 | 47.92239 | 11.42513 | 13989 ft | 390 kts | 13° |
| 2026-05-06 18:06 | 47.94859 | 11.43580 | 13337 ft | 387 kts | 13° |
| 2026-05-06 18:06 | 47.97452 | 11.44639 | 12702 ft | 383 kts | 13° |
| 2026-05-06 18:07 | 48.00019 | 11.45692 | 12037 ft | 380 kts | 13° |
| 2026-05-06 18:07 | 48.02525 | 11.46723 | 11416 ft | 377 kts | 13° |
| 2026-05-06 18:07 | 48.05044 | 11.47759 | 10968 ft | 373 kts | 13° |
| 2026-05-06 18:07 | 48.07557 | 11.48791 | 10835 ft | 375 kts | 13° |
| 2026-05-06 18:08 | 48.10087 | 11.49832 | 10861 ft | 375 kts | 12° |
| 2026-05-06 18:08 | 48.12598 | 11.50867 | 10860 ft | 374 kts | 13° |
| 2026-05-06 18:08 | 48.15079 | 11.51891 | 10860 ft | 374 kts | 13° |
| 2026-05-06 18:08 | 48.17589 | 11.52926 | 10855 ft | 374 kts | 13° |
| 2026-05-06 18:09 | 48.20092 | 11.54006 | 10854 ft | 374 kts | 18° |
| 2026-05-06 18:09 | 48.22277 | 11.55943 | 10833 ft | 356 kts | 42° |
| 2026-05-06 18:09 | 48.23729 | 11.58807 | 10734 ft | 338 kts | 66° |
| 2026-05-06 18:09 | 48.24362 | 11.62090 | 10593 ft | 320 kts | 85° |
| 2026-05-06 18:10 | 48.24617 | 11.65338 | 10320 ft | 313 kts | 86° |
| 2026-05-06 18:10 | 48.24866 | 11.68553 | 9996 ft | 308 kts | 87° |
| 2026-05-06 18:10 | 48.25110 | 11.71737 | 9600 ft | 306 kts | 86° |
| 2026-05-06 18:10 | 48.25353 | 11.74905 | 9178 ft | 304 kts | 86° |
| 2026-05-06 18:11 | 48.25593 | 11.78052 | 8763 ft | 303 kts | 86° |
| 2026-05-06 18:11 | 48.25830 | 11.81152 | 8581 ft | 293 kts | 86° |
| 2026-05-06 18:11 | 48.26060 | 11.84131 | 8447 ft | 282 kts | 86° |
| 2026-05-06 18:11 | 48.26282 | 11.87016 | 8304 ft | 273 kts | 86° |
| 2026-05-06 18:12 | 48.26497 | 11.89821 | 8022 ft | 269 kts | 86° |
| 2026-05-06 18:12 | 48.26707 | 11.92621 | 7695 ft | 268 kts | 86° |
| 2026-05-06 18:12 | 48.26911 | 11.95356 | 7379 ft | 267 kts | 85° |
| 2026-05-06 18:12 | 48.27117 | 11.98123 | 7049 ft | 266 kts | 86° |
| 2026-05-06 18:13 | 48.27322 | 12.00885 | 6697 ft | 266 kts | 85° |
| 2026-05-06 18:13 | 48.27528 | 12.03647 | 6369 ft | 266 kts | 85° |
| 2026-05-06 18:13 | 48.27733 | 12.06392 | 6065 ft | 263 kts | 85° |
| 2026-05-06 18:13 | 48.27949 | 12.09110 | 5991 ft | 263 kts | 81° |
| 2026-05-06 18:14 | 48.28658 | 12.11583 | 5985 ft | 259 kts | 51° |
| 2026-05-06 18:14 | 48.30057 | 12.13227 | 5840 ft | 254 kts | 22° |
| 2026-05-06 18:14 | 48.31697 | 12.14124 | 5464 ft | 254 kts | 15° |
| 2026-05-06 18:14 | 48.33389 | 12.14907 | 5135 ft | 252 kts | 12° |
| 2026-05-06 18:15 | 48.35086 | 12.15011 | 4999 ft | 242 kts | 342° |
| 2026-05-06 18:15 | 48.36493 | 12.13825 | 4986 ft | 225 kts | 309° |
| 2026-05-06 18:15 | 48.37112 | 12.11835 | 4996 ft | 207 kts | 270° |
| 2026-05-06 18:15 | 48.36786 | 12.09819 | 4996 ft | 195 kts | 250° |
| 2026-05-06 18:16 | 48.36515 | 12.07862 | 4983 ft | 192 kts | 263° |
| 2026-05-06 18:16 | 48.36378 | 12.05870 | 4843 ft | 191 kts | 263° |
| 2026-05-06 18:16 | 48.36238 | 12.03891 | 4598 ft | 189 kts | 263° |
| 2026-05-06 18:16 | 48.36096 | 12.01961 | 4351 ft | 180 kts | 264° |
| 2026-05-06 18:17 | 48.35962 | 12.00149 | 4112 ft | 170 kts | 264° |
| 2026-05-06 18:17 | 48.35832 | 11.98410 | 3887 ft | 166 kts | 263° |
| 2026-05-06 18:17 | 48.35704 | 11.96694 | 3670 ft | 164 kts | 263° |
| 2026-05-06 18:17 | 48.35577 | 11.94998 | 3453 ft | 162 kts | 263° |
| 2026-05-06 18:18 | 48.35453 | 11.93350 | 3259 ft | 152 kts | 263° |
| 2026-05-06 18:18 | 48.35339 | 11.91836 | 3058 ft | 141 kts | 264° |
| 2026-05-06 18:18 | 48.35230 | 11.90381 | 2861 ft | 139 kts | 264° |
| 2026-05-06 18:18 | 48.35120 | 11.88928 | 2674 ft | 141 kts | 264° |
| 2026-05-06 18:19 | 48.35010 | 11.87463 | 2465 ft | 140 kts | 262° |
| 2026-05-06 18:19 | 48.34900 | 11.86015 | 2270 ft | 141 kts | 262° |
| 2026-05-06 18:19 | 48.34789 | 11.84555 | 2070 ft | 141 kts | 262° |
| 2026-05-06 18:19 | 48.34672 | 11.83053 | 1876 ft | 147 kts | 263° |
| 2026-05-06 18:20 | 48.34564 | 11.81575 | 1707 ft | 139 kts | 262° |
| 2026-05-06 18:20 | 48.34462 | 11.80133 | 1560 ft | 139 kts | 262° |
| 2026-05-06 18:20 | 48.34349 | 11.78701 | 1477 ft | 132 kts | 263° |
| 2026-05-06 18:20 | 48.34252 | 11.77513 | 1485 ft | 93 kts | 263° |
| 2026-05-06 18:21 | 48.34197 | 11.76808 | 1477 ft | 43 kts | 263° |
| 2026-05-06 18:21 | 48.34199 | 11.76444 | 1483 ft | 30 kts | 285° |
| 2026-05-06 18:21 | 48.34270 | 11.76165 | 1477 ft | 27 kts | 291° |
| 2026-05-06 18:21 | 48.34339 | 11.75917 | 1474 ft | 23 kts | 294° |
| 2026-05-06 18:22 | 48.34436 | 11.75786 | 1475 ft | 20 kts | 350° |
| 2026-05-06 18:22 | 48.34505 | 11.75848 | 1478 ft | 9 kts | 91° |
| 2026-05-06 18:22 | 48.34516 | 11.75968 | 1485 ft | 15 kts | 82° |
| 2026-05-06 18:22 | 48.34531 | 11.76177 | 1477 ft | 25 kts | 83° |
| 2026-05-06 18:23 | 48.34553 | 11.76449 | 1474 ft | 27 kts | 84° |
| 2026-05-06 18:23 | 48.34574 | 11.76737 | 1485 ft | 28 kts | 83° |
| 2026-05-06 18:23 | 48.34597 | 11.77036 | 1480 ft | 26 kts | 83° |
| 2026-05-06 18:23 | 48.34619 | 11.77315 | 1483 ft | 27 kts | 83° |
| 2026-05-06 18:24 | 48.34642 | 11.77608 | 1485 ft | 29 kts | 83° |
| 2026-05-06 18:24 | 48.34665 | 11.77914 | 1485 ft | 30 kts | 84° |
| 2026-05-06 18:24 | 48.34688 | 11.78212 | 1483 ft | 27 kts | 83° |
| 2026-05-06 18:24 | 48.34710 | 11.78498 | 1473 ft | 29 kts | 83° |
| 2026-05-06 18:25 | 48.34734 | 11.78801 | 1485 ft | 29 kts | 83° |
| 2026-05-06 18:25 | 48.34756 | 11.79107 | 1485 ft | 30 kts | 84° |
| 2026-05-06 18:25 | 48.34780 | 11.79415 | 1483 ft | 28 kts | 82° |
| 2026-05-06 18:25 | 48.34834 | 11.79556 | 1482 ft | 13 kts | 10° |
| 2026-05-06 18:26 | 48.34927 | 11.79546 | 1475 ft | 13 kts | 356° |
| 2026-05-06 18:26 | 48.35016 | 11.79585 | 1482 ft | 14 kts | 16° |
| 2026-05-06 18:26 | 48.35112 | 11.79582 | 1483 ft | 15 kts | 354° |
| 2026-05-06 18:26 | 48.35221 | 11.79564 | 1478 ft | 17 kts | 353° |
| 2026-05-06 18:27 | 48.35328 | 11.79544 | 1476 ft | 13 kts | 353° |
| 2026-05-06 18:27 | 48.35410 | 11.79529 | 1473 ft | 13 kts | 353° |
| 2026-05-06 18:27 | 48.35498 | 11.79504 | 1478 ft | 12 kts | 328° |
| 2026-05-06 18:27 | 48.35506 | 11.79399 | 1482 ft | 11 kts | 263° |
| 2026-05-06 18:28 | 48.35499 | 11.79316 | 1481 ft | 2 kts | 263° |
| 2026-05-06 18:28 | 48.35498 | 11.79301 | 1481 ft | 1 kts | 263° |
| 2026-05-06 18:28 | 48.35498 | 11.79297 | 1482 ft | 0 kts | 263° |